sensor_id;sensor_type;location;lat;lon;timestamp;temperature;humidity
11246;DHT22;59870;50.106;8.580;2023-11-19T00:04:50;12.30;99.90
11246;DHT22;59870;50.106;8.580;2023-11-19T00:13:55;12.60;99.90
11246;DHT22;59870;50.106;8.580;2023-11-19T00:18:16;12.40;99.90
11246;DHT22;59870;50.106;8.580;2023-11-19T00:21:05;12.20;99.90
11246;DHT22;59870;50.106;8.580;2023-11-19T00:24:10;12.60;99.90
11246;DHT22;59870;50.106;8.580;2023-11-19T00:31:37;12.60;99.90
11246;DHT22;59870;50.106;8.580;2023-11-19T00:40:51;12.60;99.90
11246;DHT22;59870;50.106;8.580;2023-11-19T00:44:59;12.60;99.90
11246;DHT22;59870;50.106;8.580;2023-11-19T00:53:41;12.70;99.90
11246;DHT22;59870;50.106;8.580;2023-11-19T00:57:08;12.80;99.90
11246;DHT22;59870;50.106;8.580;2023-11-19T01:00:39;12.40;99.90
11246;DHT22;59870;50.106;8.580;2023-11-19T01:04:40;12.40;99.90
11246;DHT22;59870;50.106;8.580;2023-11-19T01:08:58;12.40;99.90
11246;DHT22;59870;50.106;8.580;2023-11-19T01:13:03;12.80;99.90
11246;DHT22;59870;50.106;8.580;2023-11-19T01:16:18;12.50;99.90
11246;DHT22;59870;50.106;8.580;2023-11-19T01:19:36;12.80;99.90
11246;DHT22;59870;50.106;8.580;2023-11-19T01:23:16;12.40;99.90
11246;DHT22;59870;50.106;8.580;2023-11-19T01:32:53;12.80;99.90
11246;DHT22;59870;50.106;8.580;2023-11-19T01:44:39;12.60;99.90
11246;DHT22;59870;50.106;8.580;2023-11-19T01:48:21;12.90;99.90
11246;DHT22;59870;50.106;8.580;2023-11-19T01:51:44;12.60;99.90
11246;DHT22;59870;50.106;8.580;2023-11-19T01:55:46;12.80;99.90
11246;DHT22;59870;50.106;8.580;2023-11-19T01:59:27;12.50;99.90
11246;DHT22;59870;50.106;8.580;2023-11-19T02:11:26;13.20;99.90
11246;DHT22;59870;50.106;8.580;2023-11-19T02:14:18;12.90;99.90
11246;DHT22;59870;50.106;8.580;2023-11-19T02:18:27;13.00;99.90
11246;DHT22;59870;50.106;8.580;2023-11-19T02:28:49;13.00;99.90
11246;DHT22;59870;50.106;8.580;2023-11-19T02:32:47;13.00;99.90
11246;DHT22;59870;50.106;8.580;2023-11-19T02:37:13;13.00;99.90
11246;DHT22;59870;50.106;8.580;2023-11-19T02:42:19;12.70;99.90
11246;DHT22;59870;50.106;8.580;2023-11-19T02:47:13;12.70;99.90
11246;DHT22;59870;50.106;8.580;2023-11-19T03:03:50;13.10;99.90
11246;DHT22;59870;50.106;8.580;2023-11-19T03:06:49;13.40;99.90
11246;DHT22;59870;50.106;8.580;2023-11-19T03:15:47;13.10;99.90
11246;DHT22;59870;50.106;8.580;2023-11-19T03:24:43;12.90;99.90
11246;DHT22;59870;50.106;8.580;2023-11-19T03:33:39;13.30;99.90
11246;DHT22;59870;50.106;8.580;2023-11-19T03:38:17;12.90;99.90
11246;DHT22;59870;50.106;8.580;2023-11-19T03:43:15;13.20;99.90
11246;DHT22;59870;50.106;8.580;2023-11-19T03:52:27;13.30;99.90
11246;DHT22;59870;50.106;8.580;2023-11-19T04:01:17;13.00;99.90
11246;DHT22;59870;50.106;8.580;2023-11-19T04:10:34;13.40;99.90
11246;DHT22;59870;50.106;8.580;2023-11-19T04:14:44;13.20;99.90
11246;DHT22;59870;50.106;8.580;2023-11-19T04:28:30;13.50;99.90
11246;DHT22;59870;50.106;8.580;2023-11-19T04:32:12;13.50;99.90
11246;DHT22;59870;50.106;8.580;2023-11-19T04:35:46;13.10;99.90
11246;DHT22;59870;50.106;8.580;2023-11-19T04:39:50;13.20;99.90
11246;DHT22;59870;50.106;8.580;2023-11-19T04:44:04;13.20;99.90
11246;DHT22;59870;50.106;8.580;2023-11-19T04:48:09;13.40;99.90
11246;DHT22;59870;50.106;8.580;2023-11-19T04:56:56;13.30;99.90
11246;DHT22;59870;50.106;8.580;2023-11-19T05:00:58;13.60;99.90
11246;DHT22;59870;50.106;8.580;2023-11-19T05:05:01;13.60;99.90
11246;DHT22;59870;50.106;8.580;2023-11-19T05:11:28;13.40;99.90
11246;DHT22;59870;50.106;8.580;2023-11-19T05:13:56;13.60;99.90
11246;DHT22;59870;50.106;8.580;2023-11-19T05:16:24;13.90;99.90
11246;DHT22;59870;50.106;8.580;2023-11-19T05:19:42;13.70;99.90
11246;DHT22;59870;50.106;8.580;2023-11-19T05:23:26;13.40;99.90
11246;DHT22;59870;50.106;8.580;2023-11-19T05:33:05;13.80;99.90
11246;DHT22;59870;50.106;8.580;2023-11-19T05:46:36;13.50;99.90
11246;DHT22;59870;50.106;8.580;2023-11-19T06:09:12;14.00;99.90
11246;DHT22;59870;50.106;8.580;2023-11-19T06:12:27;14.20;99.90
11246;DHT22;59870;50.106;8.580;2023-11-19T06:21:36;14.00;99.90
11246;DHT22;59870;50.106;8.580;2023-11-19T06:25:38;13.90;99.90
11246;DHT22;59870;50.106;8.580;2023-11-19T06:29:54;13.80;99.90
11246;DHT22;59870;50.106;8.580;2023-11-19T06:34:22;13.90;99.90
11246;DHT22;59870;50.106;8.580;2023-11-19T06:42:38;13.80;99.90
11246;DHT22;59870;50.106;8.580;2023-11-19T06:50:52;14.10;99.90
11246;DHT22;59870;50.106;8.580;2023-11-19T06:55:37;14.10;99.90
11246;DHT22;59870;50.106;8.580;2023-11-19T07:00:23;14.20;99.90
11246;DHT22;59870;50.106;8.580;2023-11-19T07:04:45;13.90;99.90
11246;DHT22;59870;50.106;8.580;2023-11-19T07:08:44;14.30;99.90
11246;DHT22;59870;50.106;8.580;2023-11-19T07:17:35;14.20;99.90
11246;DHT22;59870;50.106;8.580;2023-11-19T07:40:10;14.40;99.90
11246;DHT22;59870;50.106;8.580;2023-11-19T07:44:11;14.00;99.90
11246;DHT22;59870;50.106;8.580;2023-11-19T07:52:37;14.50;99.90
11246;DHT22;59870;50.106;8.580;2023-11-19T07:55:06;14.80;99.90
11246;DHT22;59870;50.106;8.580;2023-11-19T07:57:40;14.20;99.90
11246;DHT22;59870;50.106;8.580;2023-11-19T08:00:34;14.60;99.90
11246;DHT22;59870;50.106;8.580;2023-11-19T08:03:04;14.50;99.90
11246;DHT22;59870;50.106;8.580;2023-11-19T08:05:35;14.60;99.90
11246;DHT22;59870;50.106;8.580;2023-11-19T08:08:04;14.70;99.90
11246;DHT22;59870;50.106;8.580;2023-11-19T08:12:05;14.50;99.90
11246;DHT22;59870;50.106;8.580;2023-11-19T08:16:03;14.70;99.90
11246;DHT22;59870;50.106;8.580;2023-11-19T08:46:12;15.20;99.90
11246;DHT22;59870;50.106;8.580;2023-11-19T08:52:33;15.30;99.90
11246;DHT22;59870;50.106;8.580;2023-11-19T08:55:04;15.60;99.90
11246;DHT22;59870;50.106;8.580;2023-11-19T08:58:14;15.10;99.90
11246;DHT22;59870;50.106;8.580;2023-11-19T09:01:04;15.10;99.90
11246;DHT22;59870;50.106;8.580;2023-11-19T09:03:40;15.60;99.90
11246;DHT22;59870;50.106;8.580;2023-11-19T09:06:33;15.30;99.90
11246;DHT22;59870;50.106;8.580;2023-11-19T09:10:03;15.70;99.90
11246;DHT22;59870;50.106;8.580;2023-11-19T09:13:57;15.60;99.90
11246;DHT22;59870;50.106;8.580;2023-11-19T09:22:31;16.00;99.90
11246;DHT22;59870;50.106;8.580;2023-11-19T09:26:14;16.30;99.90
11246;DHT22;59870;50.106;8.580;2023-11-19T09:30:35;16.60;99.90
11246;DHT22;59870;50.106;8.580;2023-11-19T09:33:53;17.10;99.90
11246;DHT22;59870;50.106;8.580;2023-11-19T09:36:25;17.10;99.90
11246;DHT22;59870;50.106;8.580;2023-11-19T09:39:00;17.40;99.90
11246;DHT22;59870;50.106;8.580;2023-11-19T09:41:35;17.50;99.90
11246;DHT22;59870;50.106;8.580;2023-11-19T09:45:29;17.80;99.90
11246;DHT22;59870;50.106;8.580;2023-11-19T09:48:32;18.00;99.90
11246;DHT22;59870;50.106;8.580;2023-11-19T09:51:02;17.90;99.90
11246;DHT22;59870;50.106;8.580;2023-11-19T09:53:31;18.10;99.90
11246;DHT22;59870;50.106;8.580;2023-11-19T09:56:13;18.60;99.90
11246;DHT22;59870;50.106;8.580;2023-11-19T09:58:56;18.60;99.70
11246;DHT22;59870;50.106;8.580;2023-11-19T10:01:28;18.40;99.30
11246;DHT22;59870;50.106;8.580;2023-11-19T10:08:15;18.80;99.50
11246;DHT22;59870;50.106;8.580;2023-11-19T10:10:50;18.90;98.50
11246;DHT22;59870;50.106;8.580;2023-11-19T10:13:26;18.90;98.70
11246;DHT22;59870;50.106;8.580;2023-11-19T10:16:34;18.90;98.40
11246;DHT22;59870;50.106;8.580;2023-11-19T10:19:05;18.60;99.00
11246;DHT22;59870;50.106;8.580;2023-11-19T10:21:37;18.80;98.50
11246;DHT22;59870;50.106;8.580;2023-11-19T10:24:08;18.80;98.10
11246;DHT22;59870;50.106;8.580;2023-11-19T10:26:41;18.80;98.20
11246;DHT22;59870;50.106;8.580;2023-11-19T10:29:23;18.80;98.30
11246;DHT22;59870;50.106;8.580;2023-11-19T10:31:57;18.70;98.20
11246;DHT22;59870;50.106;8.580;2023-11-19T10:34:49;18.70;98.20
11246;DHT22;59870;50.106;8.580;2023-11-19T10:37:28;18.40;97.70
11246;DHT22;59870;50.106;8.580;2023-11-19T10:40:02;18.40;98.30
11246;DHT22;59870;50.106;8.580;2023-11-19T10:42:34;18.40;98.20
11246;DHT22;59870;50.106;8.580;2023-11-19T10:45:23;18.70;98.00
11246;DHT22;59870;50.106;8.580;2023-11-19T10:48:27;18.40;97.30
11246;DHT22;59870;50.106;8.580;2023-11-19T10:51:49;18.70;96.90
11246;DHT22;59870;50.106;8.580;2023-11-19T10:54:49;18.70;96.90
11246;DHT22;59870;50.106;8.580;2023-11-19T10:57:45;18.80;97.40
11246;DHT22;59870;50.106;8.580;2023-11-19T11:01:53;18.40;96.20
11246;DHT22;59870;50.106;8.580;2023-11-19T11:10:36;18.80;95.60
11246;DHT22;59870;50.106;8.580;2023-11-19T11:14:52;18.50;92.90
11246;DHT22;59870;50.106;8.580;2023-11-19T11:19:03;18.70;91.90
11246;DHT22;59870;50.106;8.580;2023-11-19T11:26:50;18.60;91.90
11246;DHT22;59870;50.106;8.580;2023-11-19T11:43:59;18.10;91.60
11246;DHT22;59870;50.106;8.580;2023-11-19T12:23:45;18.20;90.20
11246;DHT22;59870;50.106;8.580;2023-11-19T12:26:32;17.90;90.90
11246;DHT22;59870;50.106;8.580;2023-11-19T12:29:01;18.40;91.50
11246;DHT22;59870;50.106;8.580;2023-11-19T13:39:18;18.10;90.00
11246;DHT22;59870;50.106;8.580;2023-11-19T13:45:01;18.10;89.80
11246;DHT22;59870;50.106;8.580;2023-11-19T13:47:34;18.10;89.30
11246;DHT22;59870;50.106;8.580;2023-11-19T14:14:48;18.20;87.80
11246;DHT22;59870;50.106;8.580;2023-11-19T14:17:18;18.40;87.60
11246;DHT22;59870;50.106;8.580;2023-11-19T14:19:46;18.20;87.10
11246;DHT22;59870;50.106;8.580;2023-11-19T14:22:17;18.50;85.70
11246;DHT22;59870;50.106;8.580;2023-11-19T14:24:50;18.20;84.90
11246;DHT22;59870;50.106;8.580;2023-11-19T14:27:18;18.20;83.70
11246;DHT22;59870;50.106;8.580;2023-11-19T14:29:46;18.40;84.40
11246;DHT22;59870;50.106;8.580;2023-11-19T14:32:18;18.10;84.40
11246;DHT22;59870;50.106;8.580;2023-11-19T14:35:14;18.20;85.40
11246;DHT22;59870;50.106;8.580;2023-11-19T14:37:57;18.10;86.30
11246;DHT22;59870;50.106;8.580;2023-11-19T14:40:25;17.70;84.10
11246;DHT22;59870;50.106;8.580;2023-11-19T14:42:56;18.30;84.80
11246;DHT22;59870;50.106;8.580;2023-11-19T15:04:28;17.80;86.20
11246;DHT22;59870;50.106;8.580;2023-11-19T15:10:44;17.80;85.10
11246;DHT22;59870;50.106;8.580;2023-11-19T15:13:21;17.80;85.20
11246;DHT22;59870;50.106;8.580;2023-11-19T15:15:49;17.80;84.90
11246;DHT22;59870;50.106;8.580;2023-11-19T15:18:22;18.10;85.10
11246;DHT22;59870;50.106;8.580;2023-11-19T15:21:01;18.00;85.50
11246;DHT22;59870;50.106;8.580;2023-11-19T15:23:30;18.00;85.20
11246;DHT22;59870;50.106;8.580;2023-11-19T15:25:58;18.00;85.80
11246;DHT22;59870;50.106;8.580;2023-11-19T15:28:26;17.60;85.80
11246;DHT22;59870;50.106;8.580;2023-11-19T15:30:53;17.90;86.60
11246;DHT22;59870;50.106;8.580;2023-11-19T15:33:21;17.60;86.00
11246;DHT22;59870;50.106;8.580;2023-11-19T15:35:50;17.50;86.00
11246;DHT22;59870;50.106;8.580;2023-11-19T15:50:51;17.40;86.50
11246;DHT22;59870;50.106;8.580;2023-11-19T15:56:47;17.30;86.40
11246;DHT22;59870;50.106;8.580;2023-11-19T15:59:56;17.20;86.30
11246;DHT22;59870;50.106;8.580;2023-11-19T16:11:57;17.10;87.20
11246;DHT22;59870;50.106;8.580;2023-11-19T16:21:01;17.00;87.70
11246;DHT22;59870;50.106;8.580;2023-11-19T16:23:59;17.00;87.50
11246;DHT22;59870;50.106;8.580;2023-11-19T16:37:09;16.60;87.30
11246;DHT22;59870;50.106;8.580;2023-11-19T16:43:08;16.90;87.60
11246;DHT22;59870;50.106;8.580;2023-11-19T16:45:48;16.50;86.70
11246;DHT22;59870;50.106;8.580;2023-11-19T16:48:29;16.50;87.40
11246;DHT22;59870;50.106;8.580;2023-11-19T16:51:11;16.90;87.50
11246;DHT22;59870;50.106;8.580;2023-11-19T16:53:50;16.50;87.70
11246;DHT22;59870;50.106;8.580;2023-11-19T16:56:44;17.10;87.90
11246;DHT22;59870;50.106;8.580;2023-11-19T17:10:09;16.80;87.80
11246;DHT22;59870;50.106;8.580;2023-11-19T17:48:28;16.70;86.50
11246;DHT22;59870;50.106;8.580;2023-11-19T17:53:03;16.20;86.50
11246;DHT22;59870;50.106;8.580;2023-11-19T17:56:42;16.20;86.60
11246;DHT22;59870;50.106;8.580;2023-11-19T17:59:50;16.50;87.00
11246;DHT22;59870;50.106;8.580;2023-11-19T18:11:19;16.40;87.10
11246;DHT22;59870;50.106;8.580;2023-11-19T18:18:32;16.30;87.70
11246;DHT22;59870;50.106;8.580;2023-11-19T19:16:52;15.80;89.80
11246;DHT22;59870;50.106;8.580;2023-11-19T19:48:20;15.90;88.40
11246;DHT22;59870;50.106;8.580;2023-11-19T21:56:12;16.10;91.40
